sensor_id;sensor_type;location;lat;lon;timestamp;temperature;humidity
8711;DHT22;4392;47.400;8.062;2023-02-01T00:00:58;5.60;97.40
8711;DHT22;4392;47.400;8.062;2023-02-01T00:03:32;5.60;97.70
8711;DHT22;4392;47.400;8.062;2023-02-01T00:05:58;5.60;97.60
8711;DHT22;4392;47.400;8.062;2023-02-01T00:08:24;5.60;97.40
8711;DHT22;4392;47.400;8.062;2023-02-01T00:11:07;5.60;97.10
8711;DHT22;4392;47.400;8.062;2023-02-01T00:13:38;5.60;97.40
8711;DHT22;4392;47.400;8.062;2023-02-01T00:16:08;5.60;97.00
8711;DHT22;4392;47.400;8.062;2023-02-01T00:18:34;5.60;96.90
8711;DHT22;4392;47.400;8.062;2023-02-01T00:21:00;5.60;96.80
8711;DHT22;4392;47.400;8.062;2023-02-01T00:23:26;5.60;96.90
8711;DHT22;4392;47.400;8.062;2023-02-01T00:25:54;5.40;97.10
8711;DHT22;4392;47.400;8.062;2023-02-01T00:28:20;5.60;99.90
8711;DHT22;4392;47.400;8.062;2023-02-01T00:30:58;5.70;99.90
8711;DHT22;4392;47.400;8.062;2023-02-01T00:33:24;5.70;99.80
8711;DHT22;4392;47.400;8.062;2023-02-01T00:35:50;5.70;99.90
8711;DHT22;4392;47.400;8.062;2023-02-01T00:38:21;5.70;99.50
8711;DHT22;4392;47.400;8.062;2023-02-01T00:40:47;5.70;99.00
8711;DHT22;4392;47.400;8.062;2023-02-01T00:43:12;5.70;98.90
8711;DHT22;4392;47.400;8.062;2023-02-01T00:45:38;5.70;98.80
8711;DHT22;4392;47.400;8.062;2023-02-01T00:48:08;5.70;98.80
8711;DHT22;4392;47.400;8.062;2023-02-01T00:50:34;5.70;98.60
8711;DHT22;4392;47.400;8.062;2023-02-01T00:53:00;5.70;98.60
8711;DHT22;4392;47.400;8.062;2023-02-01T00:55:26;5.60;98.60
8711;DHT22;4392;47.400;8.062;2023-02-01T00:57:51;5.60;99.80
8711;DHT22;4392;47.400;8.062;2023-02-01T01:00:17;7.10;99.90
8711;DHT22;4392;47.400;8.062;2023-02-01T01:02:50;6.60;99.90
8711;DHT22;4392;47.400;8.062;2023-02-01T01:05:15;6.10;99.90
8711;DHT22;4392;47.400;8.062;2023-02-01T01:07:46;5.80;99.90
8711;DHT22;4392;47.400;8.062;2023-02-01T01:10:15;5.70;99.90
8711;DHT22;4392;47.400;8.062;2023-02-01T01:12:41;5.60;99.90
8711;DHT22;4392;47.400;8.062;2023-02-01T01:15:15;5.50;99.90
8711;DHT22;4392;47.400;8.062;2023-02-01T01:17:46;5.50;99.90
8711;DHT22;4392;47.400;8.062;2023-02-01T01:20:17;5.50;99.90
8711;DHT22;4392;47.400;8.062;2023-02-01T01:22:48;5.50;99.90
8711;DHT22;4392;47.400;8.062;2023-02-01T01:25:14;5.40;99.90
8711;DHT22;4392;47.400;8.062;2023-02-01T01:27:40;5.40;99.90
8711;DHT22;4392;47.400;8.062;2023-02-01T01:30:06;5.40;99.90
8711;DHT22;4392;47.400;8.062;2023-02-01T01:32:36;5.40;99.90
8711;DHT22;4392;47.400;8.062;2023-02-01T01:35:05;5.40;99.90
8711;DHT22;4392;47.400;8.062;2023-02-01T01:37:31;5.40;99.90
8711;DHT22;4392;47.400;8.062;2023-02-01T01:39:58;5.40;99.90
8711;DHT22;4392;47.400;8.062;2023-02-01T01:42:29;5.40;99.90
8711;DHT22;4392;47.400;8.062;2023-02-01T01:45:18;5.40;99.90
8711;DHT22;4392;47.400;8.062;2023-02-01T01:48:36;7.40;99.90
8711;DHT22;4392;47.400;8.062;2023-02-01T01:50:47;6.80;99.90
8711;DHT22;4392;47.400;8.062;2023-02-01T01:53:20;6.20;99.90
8711;DHT22;4392;47.400;8.062;2023-02-01T01:55:53;5.80;99.90
8711;DHT22;4392;47.400;8.062;2023-02-01T01:58:24;5.70;99.90
8711;DHT22;4392;47.400;8.062;2023-02-01T02:00:53;5.60;99.90
8711;DHT22;4392;47.400;8.062;2023-02-01T02:03:42;5.50;99.90
8711;DHT22;4392;47.400;8.062;2023-02-01T02:06:30;5.50;99.90
8711;DHT22;4392;47.400;8.062;2023-02-01T02:08:58;5.40;99.90
8711;DHT22;4392;47.400;8.062;2023-02-01T02:11:23;5.40;99.90
8711;DHT22;4392;47.400;8.062;2023-02-01T02:13:54;5.60;99.90
8711;DHT22;4392;47.400;8.062;2023-02-01T02:27:51;5.60;99.90
8711;DHT22;4392;47.400;8.062;2023-02-01T02:42:37;6.30;99.90
8711;DHT22;4392;47.400;8.062;2023-02-01T02:45:47;6.00;99.90
8711;DHT22;4392;47.400;8.062;2023-02-01T02:48:42;5.80;99.90
8711;DHT22;4392;47.400;8.062;2023-02-01T02:51:23;5.60;99.90
8711;DHT22;4392;47.400;8.062;2023-02-01T02:54:16;5.50;99.90
8711;DHT22;4392;47.400;8.062;2023-02-01T02:57:09;5.50;99.90
8711;DHT22;4392;47.400;8.062;2023-02-01T03:00:00;5.40;99.90
8711;DHT22;4392;47.400;8.062;2023-02-01T03:02:47;5.40;99.90
8711;DHT22;4392;47.400;8.062;2023-02-01T03:05:35;5.40;99.90
8711;DHT22;4392;47.400;8.062;2023-02-01T03:24:55;6.60;99.90
8711;DHT22;4392;47.400;8.062;2023-02-01T03:27:32;5.90;99.50
8711;DHT22;4392;47.400;8.062;2023-02-01T03:30:21;5.70;99.90
8711;DHT22;4392;47.400;8.062;2023-02-01T03:32:58;5.60;99.90
8711;DHT22;4392;47.400;8.062;2023-02-01T03:41:43;5.30;99.90
8711;DHT22;4392;47.400;8.062;2023-02-01T03:44:36;5.20;99.90
8711;DHT22;4392;47.400;8.062;2023-02-01T03:47:23;5.20;99.90
8711;DHT22;4392;47.400;8.062;2023-02-01T03:49:55;6.70;99.90
8711;DHT22;4392;47.400;8.062;2023-02-01T03:52:44;6.50;99.90
8711;DHT22;4392;47.400;8.062;2023-02-01T03:55:11;6.00;99.90
8711;DHT22;4392;47.400;8.062;2023-02-01T03:57:48;5.70;99.90
8711;DHT22;4392;47.400;8.062;2023-02-01T04:00:28;5.60;99.90
8711;DHT22;4392;47.400;8.062;2023-02-01T04:02:57;5.60;99.90
8711;DHT22;4392;47.400;8.062;2023-02-01T04:05:23;5.50;99.90
8711;DHT22;4392;47.400;8.062;2023-02-01T04:07:49;5.50;99.90
8711;DHT22;4392;47.400;8.062;2023-02-01T04:10:15;5.50;99.90
8711;DHT22;4392;47.400;8.062;2023-02-01T04:12:40;5.50;99.90
8711;DHT22;4392;47.400;8.062;2023-02-01T04:15:11;5.40;99.80
8711;DHT22;4392;47.400;8.062;2023-02-01T04:17:37;5.80;99.90
8711;DHT22;4392;47.400;8.062;2023-02-01T04:20:03;6.10;99.90
8711;DHT22;4392;47.400;8.062;2023-02-01T04:22:30;5.70;99.90
8711;DHT22;4392;47.400;8.062;2023-02-01T04:25:11;5.50;99.90
8711;DHT22;4392;47.400;8.062;2023-02-01T04:27:37;5.30;99.90
8711;DHT22;4392;47.400;8.062;2023-02-01T04:30:04;5.30;99.90
8711;DHT22;4392;47.400;8.062;2023-02-01T04:32:30;5.20;99.90
8711;DHT22;4392;47.400;8.062;2023-02-01T04:34:58;5.10;99.90
8711;DHT22;4392;47.400;8.062;2023-02-01T04:37:24;5.10;99.90
8711;DHT22;4392;47.400;8.062;2023-02-01T04:39:50;5.00;99.90
8711;DHT22;4392;47.400;8.062;2023-02-01T04:42:15;4.70;99.90
8711;DHT22;4392;47.400;8.062;2023-02-01T04:44:41;4.80;99.90
8711;DHT22;4392;47.400;8.062;2023-02-01T04:47:13;4.90;99.90
8711;DHT22;4392;47.400;8.062;2023-02-01T04:49:41;4.90;99.90
8711;DHT22;4392;47.400;8.062;2023-02-01T04:52:07;4.90;99.90
8711;DHT22;4392;47.400;8.062;2023-02-01T04:54:37;4.80;99.90
8711;DHT22;4392;47.400;8.062;2023-02-01T04:57:02;4.90;99.90
8711;DHT22;4392;47.400;8.062;2023-02-01T04:59:28;4.90;99.90
8711;DHT22;4392;47.400;8.062;2023-02-01T05:01:54;4.90;99.90
8711;DHT22;4392;47.400;8.062;2023-02-01T05:04:20;5.20;99.90
8711;DHT22;4392;47.400;8.062;2023-02-01T05:06:49;5.30;99.90
8711;DHT22;4392;47.400;8.062;2023-02-01T05:09:15;5.20;99.90
8711;DHT22;4392;47.400;8.062;2023-02-01T05:11:42;5.10;99.90
8711;DHT22;4392;47.400;8.062;2023-02-01T05:14:29;4.90;99.90
8711;DHT22;4392;47.400;8.062;2023-02-01T05:16:55;5.00;99.90
8711;DHT22;4392;47.400;8.062;2023-02-01T05:19:23;4.90;99.90
8711;DHT22;4392;47.400;8.062;2023-02-01T05:21:51;4.90;99.90
8711;DHT22;4392;47.400;8.062;2023-02-01T05:24:17;5.00;99.90
8711;DHT22;4392;47.400;8.062;2023-02-01T05:26:46;5.00;99.90
8711;DHT22;4392;47.400;8.062;2023-02-01T05:29:17;5.00;99.90
8711;DHT22;4392;47.400;8.062;2023-02-01T05:31:45;5.20;99.90
8711;DHT22;4392;47.400;8.062;2023-02-01T05:34:11;5.10;99.90
8711;DHT22;4392;47.400;8.062;2023-02-01T05:36:42;5.10;99.90
8711;DHT22;4392;47.400;8.062;2023-02-01T05:39:08;5.00;99.90
8711;DHT22;4392;47.400;8.062;2023-02-01T05:41:33;4.90;99.90
8711;DHT22;4392;47.400;8.062;2023-02-01T05:43:59;4.90;99.90
8711;DHT22;4392;47.400;8.062;2023-02-01T05:46:25;4.90;99.90
8711;DHT22;4392;47.400;8.062;2023-02-01T05:48:53;4.90;99.90
8711;DHT22;4392;47.400;8.062;2023-02-01T05:51:19;4.80;99.90
8711;DHT22;4392;47.400;8.062;2023-02-01T05:53:47;4.90;99.90
8711;DHT22;4392;47.400;8.062;2023-02-01T05:56:12;4.80;99.90
8711;DHT22;4392;47.400;8.062;2023-02-01T05:58:44;4.80;99.90
8711;DHT22;4392;47.400;8.062;2023-02-01T06:01:14;5.10;99.90
8711;DHT22;4392;47.400;8.062;2023-02-01T06:03:48;5.40;99.90
8711;DHT22;4392;47.400;8.062;2023-02-01T06:06:16;5.10;99.90
8711;DHT22;4392;47.400;8.062;2023-02-01T06:08:45;4.70;99.90
8711;DHT22;4392;47.400;8.062;2023-02-01T06:11:11;4.80;99.90
8711;DHT22;4392;47.400;8.062;2023-02-01T06:13:41;4.70;99.90
8711;DHT22;4392;47.400;8.062;2023-02-01T06:16:09;4.60;99.90
8711;DHT22;4392;47.400;8.062;2023-02-01T06:18:35;4.70;99.90
8711;DHT22;4392;47.400;8.062;2023-02-01T06:21:01;4.80;99.90
8711;DHT22;4392;47.400;8.062;2023-02-01T06:23:28;4.80;99.90
8711;DHT22;4392;47.400;8.062;2023-02-01T06:26:10;4.80;99.90
8711;DHT22;4392;47.400;8.062;2023-02-01T06:28:36;4.70;99.90
8711;DHT22;4392;47.400;8.062;2023-02-01T06:31:10;4.80;99.90
8711;DHT22;4392;47.400;8.062;2023-02-01T06:33:36;5.00;99.90
8711;DHT22;4392;47.400;8.062;2023-02-01T06:36:06;4.80;99.90
8711;DHT22;4392;47.400;8.062;2023-02-01T06:38:39;4.70;99.90
8711;DHT22;4392;47.400;8.062;2023-02-01T06:41:18;4.70;99.90
8711;DHT22;4392;47.400;8.062;2023-02-01T06:43:49;4.80;99.90
8711;DHT22;4392;47.400;8.062;2023-02-01T06:46:17;4.80;99.90
8711;DHT22;4392;47.400;8.062;2023-02-01T06:48:48;4.70;99.90
8711;DHT22;4392;47.400;8.062;2023-02-01T06:51:21;4.70;99.90
8711;DHT22;4392;47.400;8.062;2023-02-01T06:53:48;4.70;99.90
8711;DHT22;4392;47.400;8.062;2023-02-01T06:56:18;4.40;99.90
8711;DHT22;4392;47.400;8.062;2023-02-01T06:58:49;4.40;99.90
8711;DHT22;4392;47.400;8.062;2023-02-01T07:01:17;4.50;99.90
8711;DHT22;4392;47.400;8.062;2023-02-01T07:03:49;4.60;99.90
8711;DHT22;4392;47.400;8.062;2023-02-01T07:06:19;4.60;99.90
8711;DHT22;4392;47.400;8.062;2023-02-01T07:08:47;4.70;99.90
8711;DHT22;4392;47.400;8.062;2023-02-01T07:11:15;4.80;99.90
8711;DHT22;4392;47.400;8.062;2023-02-01T07:13:46;4.60;99.90
8711;DHT22;4392;47.400;8.062;2023-02-01T07:16:16;4.60;99.90
8711;DHT22;4392;47.400;8.062;2023-02-01T07:18:45;4.70;99.90
8711;DHT22;4392;47.400;8.062;2023-02-01T07:21:11;4.70;99.90
8711;DHT22;4392;47.400;8.062;2023-02-01T07:23:38;4.70;99.90
8711;DHT22;4392;47.400;8.062;2023-02-01T07:26:12;4.70;99.90
8711;DHT22;4392;47.400;8.062;2023-02-01T07:28:39;4.70;99.90
8711;DHT22;4392;47.400;8.062;2023-02-01T07:31:06;4.70;99.90
8711;DHT22;4392;47.400;8.062;2023-02-01T07:33:33;4.70;99.90
8711;DHT22;4392;47.400;8.062;2023-02-01T07:36:03;4.70;99.90
8711;DHT22;4392;47.400;8.062;2023-02-01T07:38:29;4.80;99.90
8711;DHT22;4392;47.400;8.062;2023-02-01T07:41:02;4.80;99.90
8711;DHT22;4392;47.400;8.062;2023-02-01T07:43:29;4.70;99.90
8711;DHT22;4392;47.400;8.062;2023-02-01T07:46:02;4.80;99.90
8711;DHT22;4392;47.400;8.062;2023-02-01T07:48:29;4.80;99.90
8711;DHT22;4392;47.400;8.062;2023-02-01T07:51:00;4.80;99.90
8711;DHT22;4392;47.400;8.062;2023-02-01T07:53:36;4.80;99.90
8711;DHT22;4392;47.400;8.062;2023-02-01T07:56:03;4.80;99.90
8711;DHT22;4392;47.400;8.062;2023-02-01T07:58:29;4.80;99.90
8711;DHT22;4392;47.400;8.062;2023-02-01T08:00:56;4.80;99.90
8711;DHT22;4392;47.400;8.062;2023-02-01T08:03:40;4.80;99.90
8711;DHT22;4392;47.400;8.062;2023-02-01T08:06:12;4.80;99.90
8711;DHT22;4392;47.400;8.062;2023-02-01T08:08:38;4.80;99.90
8711;DHT22;4392;47.400;8.062;2023-02-01T08:11:05;4.80;99.90
8711;DHT22;4392;47.400;8.062;2023-02-01T08:13:37;4.80;99.90
8711;DHT22;4392;47.400;8.062;2023-02-01T08:16:07;4.70;99.90
8711;DHT22;4392;47.400;8.062;2023-02-01T08:18:39;4.40;99.90
8711;DHT22;4392;47.400;8.062;2023-02-01T08:21:06;4.50;99.90
8711;DHT22;4392;47.400;8.062;2023-02-01T08:23:37;4.60;99.90
8711;DHT22;4392;47.400;8.062;2023-02-01T08:28:58;4.70;99.90
8711;DHT22;4392;47.400;8.062;2023-02-01T08:31:26;4.70;99.90
8711;DHT22;4392;47.400;8.062;2023-02-01T08:33:59;4.60;99.90
8711;DHT22;4392;47.400;8.062;2023-02-01T08:36:26;4.70;99.90
8711;DHT22;4392;47.400;8.062;2023-02-01T08:38:53;4.60;99.90
8711;DHT22;4392;47.400;8.062;2023-02-01T08:41:26;4.50;99.90
8711;DHT22;4392;47.400;8.062;2023-02-01T08:43:52;4.50;99.90
8711;DHT22;4392;47.400;8.062;2023-02-01T08:46:24;4.40;99.90
8711;DHT22;4392;47.400;8.062;2023-02-01T08:48:50;4.50;99.90
8711;DHT22;4392;47.400;8.062;2023-02-01T08:51:18;4.60;99.90
8711;DHT22;4392;47.400;8.062;2023-02-01T08:53:49;4.70;99.90
8711;DHT22;4392;47.400;8.062;2023-02-01T08:56:18;4.70;99.90
8711;DHT22;4392;47.400;8.062;2023-02-01T08:58:50;4.70;99.90
8711;DHT22;4392;47.400;8.062;2023-02-01T09:01:16;4.70;99.90
8711;DHT22;4392;47.400;8.062;2023-02-01T09:03:42;4.60;99.90
8711;DHT22;4392;47.400;8.062;2023-02-01T09:06:13;4.50;99.90
8711;DHT22;4392;47.400;8.062;2023-02-01T09:08:40;4.60;99.90
8711;DHT22;4392;47.400;8.062;2023-02-01T09:11:08;4.60;99.90
8711;DHT22;4392;47.400;8.062;2023-02-01T09:13:38;4.80;99.90
8711;DHT22;4392;47.400;8.062;2023-02-01T09:16:06;4.90;99.90
8711;DHT22;4392;47.400;8.062;2023-02-01T09:18:39;4.60;99.90
8711;DHT22;4392;47.400;8.062;2023-02-01T09:21:14;4.60;99.90
8711;DHT22;4392;47.400;8.062;2023-02-01T09:23:52;4.80;99.90
8711;DHT22;4392;47.400;8.062;2023-02-01T09:26:20;4.80;99.90
8711;DHT22;4392;47.400;8.062;2023-02-01T09:28:51;4.80;99.90
8711;DHT22;4392;47.400;8.062;2023-02-01T09:31:18;4.90;99.90
8711;DHT22;4392;47.400;8.062;2023-02-01T09:33:43;4.90;99.90
8711;DHT22;4392;47.400;8.062;2023-02-01T09:36:09;4.90;99.90
8711;DHT22;4392;47.400;8.062;2023-02-01T09:38:36;5.00;99.90
8711;DHT22;4392;47.400;8.062;2023-02-01T09:41:10;5.10;99.90
8711;DHT22;4392;47.400;8.062;2023-02-01T09:46:30;5.10;99.90
8711;DHT22;4392;47.400;8.062;2023-02-01T09:49:02;5.10;99.90
8711;DHT22;4392;47.400;8.062;2023-02-01T09:51:38;5.10;99.90
8711;DHT22;4392;47.400;8.062;2023-02-01T09:54:40;5.20;99.90
8711;DHT22;4392;47.400;8.062;2023-02-01T09:57:26;5.20;99.90
8711;DHT22;4392;47.400;8.062;2023-02-01T10:00:14;5.30;99.90
8711;DHT22;4392;47.400;8.062;2023-02-01T10:02:46;5.30;99.90
8711;DHT22;4392;47.400;8.062;2023-02-01T10:05:15;5.40;99.90
8711;DHT22;4392;47.400;8.062;2023-02-01T10:10:38;5.50;99.90
8711;DHT22;4392;47.400;8.062;2023-02-01T10:16:06;5.50;99.90
8711;DHT22;4392;47.400;8.062;2023-02-01T10:18:39;5.40;99.90
8711;DHT22;4392;47.400;8.062;2023-02-01T10:21:44;5.50;99.90
8711;DHT22;4392;47.400;8.062;2023-02-01T10:27:20;5.50;99.90
8711;DHT22;4392;47.400;8.062;2023-02-01T10:30:01;5.60;99.90
8711;DHT22;4392;47.400;8.062;2023-02-01T10:32:32;5.60;99.90
8711;DHT22;4392;47.400;8.062;2023-02-01T10:35:08;5.70;99.90
8711;DHT22;4392;47.400;8.062;2023-02-01T10:37:37;5.70;99.90
8711;DHT22;4392;47.400;8.062;2023-02-01T10:40:20;5.60;99.90
8711;DHT22;4392;47.400;8.062;2023-02-01T10:42:53;5.70;99.90
8711;DHT22;4392;47.400;8.062;2023-02-01T10:45:28;5.80;99.90
8711;DHT22;4392;47.400;8.062;2023-02-01T10:47:55;5.80;99.90
8711;DHT22;4392;47.400;8.062;2023-02-01T10:50:44;5.80;99.90
8711;DHT22;4392;47.400;8.062;2023-02-01T10:56:38;5.90;99.90
8711;DHT22;4392;47.400;8.062;2023-02-01T10:59:06;5.90;99.90
8711;DHT22;4392;47.400;8.062;2023-02-01T11:01:40;5.90;99.90
8711;DHT22;4392;47.400;8.062;2023-02-01T11:04:11;5.90;99.90
8711;DHT22;4392;47.400;8.062;2023-02-01T11:06:44;6.00;99.90
8711;DHT22;4392;47.400;8.062;2023-02-01T11:14:38;6.10;99.90
8711;DHT22;4392;47.400;8.062;2023-02-01T11:17:23;6.10;99.90
8711;DHT22;4392;47.400;8.062;2023-02-01T11:20:08;6.10;99.90
8711;DHT22;4392;47.400;8.062;2023-02-01T11:22:48;6.10;99.90
8711;DHT22;4392;47.400;8.062;2023-02-01T11:25:20;6.10;99.90
8711;DHT22;4392;47.400;8.062;2023-02-01T11:27:48;6.10;99.90
8711;DHT22;4392;47.400;8.062;2023-02-01T11:30:22;6.10;99.90
8711;DHT22;4392;47.400;8.062;2023-02-01T11:32:54;6.10;99.90
8711;DHT22;4392;47.400;8.062;2023-02-01T11:35:24;6.10;99.90
8711;DHT22;4392;47.400;8.062;2023-02-01T11:37:58;6.10;99.90
8711;DHT22;4392;47.400;8.062;2023-02-01T11:40:35;6.10;99.90
8711;DHT22;4392;47.400;8.062;2023-02-01T11:43:08;6.20;99.90
8711;DHT22;4392;47.400;8.062;2023-02-01T11:45:55;6.20;99.90
8711;DHT22;4392;47.400;8.062;2023-02-01T11:48:24;6.20;99.90
8711;DHT22;4392;47.400;8.062;2023-02-01T11:51:13;6.30;99.90
8711;DHT22;4392;47.400;8.062;2023-02-01T12:25:04;6.50;99.90
8711;DHT22;4392;47.400;8.062;2023-02-01T12:33:54;6.50;99.90
8711;DHT22;4392;47.400;8.062;2023-02-01T12:38:50;6.40;99.90
8711;DHT22;4392;47.400;8.062;2023-02-01T12:44:35;6.50;99.90
8711;DHT22;4392;47.400;8.062;2023-02-01T12:47:12;6.50;99.90
8711;DHT22;4392;47.400;8.062;2023-02-01T12:49:47;6.40;99.60
8711;DHT22;4392;47.400;8.062;2023-02-01T12:52:20;6.50;98.80
8711;DHT22;4392;47.400;8.062;2023-02-01T12:54:59;6.40;95.10
8711;DHT22;4392;47.400;8.062;2023-02-01T12:57:36;6.50;94.90
8711;DHT22;4392;47.400;8.062;2023-02-01T13:06:01;6.40;92.90
8711;DHT22;4392;47.400;8.062;2023-02-01T13:11:37;6.30;91.50
8711;DHT22;4392;47.400;8.062;2023-02-01T13:17:26;6.30;91.60
8711;DHT22;4392;47.400;8.062;2023-02-01T13:20:05;6.20;91.60
8711;DHT22;4392;47.400;8.062;2023-02-01T13:22:41;6.30;91.70
8711;DHT22;4392;47.400;8.062;2023-02-01T13:25:26;6.30;91.50
8711;DHT22;4392;47.400;8.062;2023-02-01T13:28:00;6.30;91.50
8711;DHT22;4392;47.400;8.062;2023-02-01T13:41:57;6.50;90.70
8711;DHT22;4392;47.400;8.062;2023-02-01T13:44:28;6.50;90.40
8711;DHT22;4392;47.400;8.062;2023-02-01T13:47:01;6.60;90.10
8711;DHT22;4392;47.400;8.062;2023-02-01T13:49:37;6.60;89.70
8711;DHT22;4392;47.400;8.062;2023-02-01T13:52:17;6.50;89.10
8711;DHT22;4392;47.400;8.062;2023-02-01T13:54:48;6.50;89.60
8711;DHT22;4392;47.400;8.062;2023-02-01T13:57:38;6.50;89.40
8711;DHT22;4392;47.400;8.062;2023-02-01T14:00:24;6.50;90.20
8711;DHT22;4392;47.400;8.062;2023-02-01T14:08:12;6.50;88.90
8711;DHT22;4392;47.400;8.062;2023-02-01T14:13:22;6.70;85.80
8711;DHT22;4392;47.400;8.062;2023-02-01T14:26:24;6.80;84.60
8711;DHT22;4392;47.400;8.062;2023-02-01T14:28:52;8.10;99.90
8711;DHT22;4392;47.400;8.062;2023-02-01T14:32:06;8.70;94.80
8711;DHT22;4392;47.400;8.062;2023-02-01T14:40:25;7.40;83.60
8711;DHT22;4392;47.400;8.062;2023-02-01T14:42:52;7.30;84.90
8711;DHT22;4392;47.400;8.062;2023-02-01T14:53:30;7.20;83.70
8711;DHT22;4392;47.400;8.062;2023-02-01T14:56:22;7.20;83.20
8711;DHT22;4392;47.400;8.062;2023-02-01T15:03:59;6.90;82.40
8711;DHT22;4392;47.400;8.062;2023-02-01T15:06:48;6.80;83.90
8711;DHT22;4392;47.400;8.062;2023-02-01T15:09:49;6.90;83.80
8711;DHT22;4392;47.400;8.062;2023-02-01T15:12:24;7.00;83.40
8711;DHT22;4392;47.400;8.062;2023-02-01T15:17:40;6.90;83.70
8711;DHT22;4392;47.400;8.062;2023-02-01T15:20:13;7.00;83.60
8711;DHT22;4392;47.400;8.062;2023-02-01T15:22:40;6.70;84.00
8711;DHT22;4392;47.400;8.062;2023-02-01T15:25:37;6.80;84.30
8711;DHT22;4392;47.400;8.062;2023-02-01T15:28:04;6.90;83.90
8711;DHT22;4392;47.400;8.062;2023-02-01T15:30:35;6.90;83.80
8711;DHT22;4392;47.400;8.062;2023-02-01T15:35:48;6.90;83.30
8711;DHT22;4392;47.400;8.062;2023-02-01T15:46:40;7.00;88.20
8711;DHT22;4392;47.400;8.062;2023-02-01T15:51:47;7.00;83.70
8711;DHT22;4392;47.400;8.062;2023-02-01T15:54:26;6.90;83.90
8711;DHT22;4392;47.400;8.062;2023-02-01T15:56:53;7.00;84.10
8711;DHT22;4392;47.400;8.062;2023-02-01T15:59:31;6.90;82.90
8711;DHT22;4392;47.400;8.062;2023-02-01T16:02:01;6.70;83.60
8711;DHT22;4392;47.400;8.062;2023-02-01T16:04:32;6.70;83.50
8711;DHT22;4392;47.400;8.062;2023-02-01T16:07:00;6.80;84.10
8711;DHT22;4392;47.400;8.062;2023-02-01T16:09:38;7.10;89.70
8711;DHT22;4392;47.400;8.062;2023-02-01T16:15:26;7.10;87.50
8711;DHT22;4392;47.400;8.062;2023-02-01T16:17:57;7.00;85.50
8711;DHT22;4392;47.400;8.062;2023-02-01T16:20:23;7.00;85.70
8711;DHT22;4392;47.400;8.062;2023-02-01T16:22:49;7.00;84.50
8711;DHT22;4392;47.400;8.062;2023-02-01T16:25:15;7.10;88.90
8711;DHT22;4392;47.400;8.062;2023-02-01T16:27:41;7.10;84.60
8711;DHT22;4392;47.400;8.062;2023-02-01T16:30:13;7.10;86.20
8711;DHT22;4392;47.400;8.062;2023-02-01T16:32:38;7.10;85.30
8711;DHT22;4392;47.400;8.062;2023-02-01T16:35:28;7.20;85.10
8711;DHT22;4392;47.400;8.062;2023-02-01T16:37:59;7.10;84.30
8711;DHT22;4392;47.400;8.062;2023-02-01T16:40:24;7.10;84.60
8711;DHT22;4392;47.400;8.062;2023-02-01T16:42:51;7.20;91.10
8711;DHT22;4392;47.400;8.062;2023-02-01T16:45:18;7.90;94.40
8711;DHT22;4392;47.400;8.062;2023-02-01T16:47:51;7.70;87.20
8711;DHT22;4392;47.400;8.062;2023-02-01T16:50:25;7.40;86.20
8711;DHT22;4392;47.400;8.062;2023-02-01T16:52:52;7.30;85.30
8711;DHT22;4392;47.400;8.062;2023-02-01T16:55:20;7.30;85.30
8711;DHT22;4392;47.400;8.062;2023-02-01T16:57:54;7.30;85.40
8711;DHT22;4392;47.400;8.062;2023-02-01T17:00:23;7.30;84.70
8711;DHT22;4392;47.400;8.062;2023-02-01T17:02:50;7.30;83.50
8711;DHT22;4392;47.400;8.062;2023-02-01T17:05:16;7.20;83.20
8711;DHT22;4392;47.400;8.062;2023-02-01T17:07:43;7.20;90.70
8711;DHT22;4392;47.400;8.062;2023-02-01T17:10:23;7.30;86.50
8711;DHT22;4392;47.400;8.062;2023-02-01T17:12:52;7.20;84.20
8711;DHT22;4392;47.400;8.062;2023-02-01T17:15:24;7.20;85.10
8711;DHT22;4392;47.400;8.062;2023-02-01T17:17:51;7.20;84.20
8711;DHT22;4392;47.400;8.062;2023-02-01T17:20:24;7.30;83.80
8711;DHT22;4392;47.400;8.062;2023-02-01T17:22:51;7.20;84.40
8711;DHT22;4392;47.400;8.062;2023-02-01T17:25:24;7.20;84.90
8711;DHT22;4392;47.400;8.062;2023-02-01T17:27:53;7.30;86.70
8711;DHT22;4392;47.400;8.062;2023-02-01T17:30:19;7.40;84.10
8711;DHT22;4392;47.400;8.062;2023-02-01T17:32:46;7.40;83.00
8711;DHT22;4392;47.400;8.062;2023-02-01T17:37:43;7.30;82.60
8711;DHT22;4392;47.400;8.062;2023-02-01T17:40:15;7.30;82.00
8711;DHT22;4392;47.400;8.062;2023-02-01T17:42:41;7.20;81.40
8711;DHT22;4392;47.400;8.062;2023-02-01T17:45:38;7.10;82.40
8711;DHT22;4392;47.400;8.062;2023-02-01T17:48:06;7.00;82.70
8711;DHT22;4392;47.400;8.062;2023-02-01T17:50:37;7.10;82.90
8711;DHT22;4392;47.400;8.062;2023-02-01T17:53:06;7.10;83.10
8711;DHT22;4392;47.400;8.062;2023-02-01T17:55:42;7.10;83.00
8711;DHT22;4392;47.400;8.062;2023-02-01T17:58:17;7.00;83.00
8711;DHT22;4392;47.400;8.062;2023-02-01T18:00:44;7.00;83.30
8711;DHT22;4392;47.400;8.062;2023-02-01T18:03:29;7.00;82.70
8711;DHT22;4392;47.400;8.062;2023-02-01T18:05:57;7.10;91.30
8711;DHT22;4392;47.400;8.062;2023-02-01T18:08:30;7.90;91.60
8711;DHT22;4392;47.400;8.062;2023-02-01T18:11:05;7.40;88.10
8711;DHT22;4392;47.400;8.062;2023-02-01T18:13:31;7.40;88.30
8711;DHT22;4392;47.400;8.062;2023-02-01T18:15:57;7.30;86.10
8711;DHT22;4392;47.400;8.062;2023-02-01T18:18:29;7.30;86.50
8711;DHT22;4392;47.400;8.062;2023-02-01T18:20:58;7.30;87.50
8711;DHT22;4392;47.400;8.062;2023-02-01T18:23:24;7.30;87.00
8711;DHT22;4392;47.400;8.062;2023-02-01T18:25:51;7.30;85.70
8711;DHT22;4392;47.400;8.062;2023-02-01T18:28:20;7.30;86.40
8711;DHT22;4392;47.400;8.062;2023-02-01T18:30:47;7.40;87.80
8711;DHT22;4392;47.400;8.062;2023-02-01T18:33:19;7.40;87.20
8711;DHT22;4392;47.400;8.062;2023-02-01T18:35:45;7.40;86.30
8711;DHT22;4392;47.400;8.062;2023-02-01T18:38:11;7.30;84.90
8711;DHT22;4392;47.400;8.062;2023-02-01T18:43:11;7.40;90.80
8711;DHT22;4392;47.400;8.062;2023-02-01T18:45:42;7.70;91.10
8711;DHT22;4392;47.400;8.062;2023-02-01T18:48:12;7.60;86.50
8711;DHT22;4392;47.400;8.062;2023-02-01T18:50:44;7.60;86.10
8711;DHT22;4392;47.400;8.062;2023-02-01T18:53:20;7.50;86.00
8711;DHT22;4392;47.400;8.062;2023-02-01T18:55:48;7.60;88.80
8711;DHT22;4392;47.400;8.062;2023-02-01T18:58:16;7.60;87.50
8711;DHT22;4392;47.400;8.062;2023-02-01T19:00:57;7.60;87.40
8711;DHT22;4392;47.400;8.062;2023-02-01T19:03:33;7.70;87.70
8711;DHT22;4392;47.400;8.062;2023-02-01T19:05:59;7.70;90.10
8711;DHT22;4392;47.400;8.062;2023-02-01T19:08:25;7.70;89.70
8711;DHT22;4392;47.400;8.062;2023-02-01T19:10:52;7.70;86.00
8711;DHT22;4392;47.400;8.062;2023-02-01T19:13:18;7.70;86.30
8711;DHT22;4392;47.400;8.062;2023-02-01T19:15:53;7.60;90.70
8711;DHT22;4392;47.400;8.062;2023-02-01T19:18:19;7.80;87.20
8711;DHT22;4392;47.400;8.062;2023-02-01T19:20:47;7.70;85.00
8711;DHT22;4392;47.400;8.062;2023-02-01T19:23:19;7.60;84.40
8711;DHT22;4392;47.400;8.062;2023-02-01T19:25:46;7.60;84.40
8711;DHT22;4392;47.400;8.062;2023-02-01T19:28:16;7.70;88.50
8711;DHT22;4392;47.400;8.062;2023-02-01T19:30:42;7.70;84.30
8711;DHT22;4392;47.400;8.062;2023-02-01T19:33:12;7.60;83.70
8711;DHT22;4392;47.400;8.062;2023-02-01T19:35:41;7.50;83.90
8711;DHT22;4392;47.400;8.062;2023-02-01T19:38:06;7.40;83.60
8711;DHT22;4392;47.400;8.062;2023-02-01T19:40:33;7.40;83.60
8711;DHT22;4392;47.400;8.062;2023-02-01T19:43:03;7.40;83.30
8711;DHT22;4392;47.400;8.062;2023-02-01T19:45:29;7.30;83.10
8711;DHT22;4392;47.400;8.062;2023-02-01T19:47:55;7.50;85.20
8711;DHT22;4392;47.400;8.062;2023-02-01T19:50:24;7.40;83.90
8711;DHT22;4392;47.400;8.062;2023-02-01T19:52:53;7.30;83.40
8711;DHT22;4392;47.400;8.062;2023-02-01T19:55:19;7.30;84.10
8711;DHT22;4392;47.400;8.062;2023-02-01T19:57:45;7.20;84.10
8711;DHT22;4392;47.400;8.062;2023-02-01T20:00:14;7.20;84.30
8711;DHT22;4392;47.400;8.062;2023-02-01T20:02:43;7.20;84.40
8711;DHT22;4392;47.400;8.062;2023-02-01T20:05:09;7.20;84.80